This is the latest recevied weather packets stored in our database for station/object KD7CIH. If no packets are shown the sender has not sent any weather packets the latest 10 day(s).
| Time | Temp. | Humidity | Pressure | Rain* | Wind** | Luminosity | Snow |
|---|---|---|---|---|---|---|---|
| 1787712607 | 19.44° C | 47% | 1022.2 hPa | 0 mm | - | - | - |
| 1787712305 | 19.44° C | 48% | 1022.3 hPa | 0 mm | - | - | - |
| 1787712132 | 20° C | 47% | 1022.3 hPa | 0 mm | - | - | - |
| 1787711706 | 20° C | 45% | 1022.4 hPa | 0 mm | - | - | - |
| 1787711408 | 20° C | 45% | 1022.4 hPa | 0 mm | - | - | - |
| 1787711109 | 19.44° C | 48% | 1022.4 hPa | 0 mm | - | - | - |
| 1787710805 | 19.44° C | 49% | 1022.4 hPa | 0 mm | - | - | - |
| 1787710505 | 19.44° C | 50% | 1022.4 hPa | 0 mm | - | - | - |
| 1787710206 | 18.89° C | 52% | 1022.4 hPa | 0 mm | - | - | - |
| 1787709907 | 18.89° C | 54% | 1022.4 hPa | 0 mm | - | - | - |
| 1787709608 | 18.89° C | 55% | 1022.7 hPa | 0 mm | - | - | - |
| 1787709308 | 19.44° C | 55% | 1022.7 hPa | 0 mm | - | - | - |
| 1787709010 | 19.44° C | 54% | 1022.5 hPa | 0 mm | - | - | - |
| 1787708708 | 19.44° C | 58% | 1022.5 hPa | 0 mm | - | - | - |
| 1787708406 | 19.44° C | 55% | 1022.7 hPa | 0 mm | - | - | - |
| 1787708106 | 19.44° C | 54% | 1022.7 hPa | 0 mm | - | - | - |
| 1787707935 | 19.44° C | 53% | 1022.8 hPa | 0 mm | - | - | - |
| 1787707507 | 20° C | 55% | 1022.8 hPa | 0 mm | - | - | - |
| 1787707208 | 20.56° C | 54% | 1022.9 hPa | 0 mm | - | - | - |
| 1787706908 | 21.11° C | 50% | 1022.9 hPa | 0 mm | - | - | - |
| 1787706609 | 21.67° C | 46% | 1022.9 hPa | 0 mm | - | - | - |
| 1787706435 | 21.67° C | 45% | 1022.9 hPa | 0 mm | - | - | - |
| 1787706007 | 21.11° C | 47% | 1022.8 hPa | 0 mm | - | - | - |
| 1787705709 | 21.11° C | 47% | 1022.8 hPa | 0 mm | - | - | - |
| 1787705407 | 21.11° C | 45% | 1022.7 hPa | 0 mm | - | - | - |
* Rain latest hour (hover to see other rain measurements)
** Current wind speed in m/s (hover to see current wind gust speed)